Time;durP1;ratioP1;P1;durP2;ratioP2;P2;SDS_P1;SDS_P2;PMS_P1;PMS_P2;Temp;Humidity;BMP_temperature;BMP_pressure;BME280_temperature;BME280_humidity;BME280_pressure;Samples;Min_cycle;Max_cycle;Signal;HPM_P1;HPM_P2
2021/09/10 00:02:22;;;;;;;20.17;10.35;;;;;;;;;;5059851;28;20025;-70
2021/09/10 00:04:48;;;;;;;21.42;10.05;;;;;;;;;;5058489;28;20033;-72
2021/09/10 00:07:14;;;;;;;22.83;10.85;;;;;;;;;;5059722;28;20055;-67
2021/09/10 00:09:44;;;;;;;19.85;9.88;;;;;;;;;;5062013;28;20032;-72
2021/09/10 00:12:10;;;;;;;19.75;10.63;;;;;;;;;;5058041;28;20056;-70
2021/09/10 00:14:36;;;;;;;13.10;9.05;;;;;;;;;;5059572;28;20065;-73
2021/09/10 00:17:02;;;;;;;17.33;9.88;;;;;;;;;;5059663;28;20040;-68
2021/09/10 00:19:29;;;;;;;15.40;9.68;;;;;;;;;;5061674;28;20021;-71
2021/09/10 00:21:55;;;;;;;14.98;9.20;;;;;;;;;;5059579;28;20029;-71
2021/09/10 00:24:21;;;;;;;13.85;8.43;;;;;;;;;;5058236;28;20053;-71
2021/09/10 00:26:47;;;;;;;14.35;9.07;;;;;;;;;;5060487;28;20025;-70
2021/09/10 00:29:13;;;;;;;14.98;9.15;;;;;;;;;;5063853;28;20021;-72
2021/09/10 00:31:39;;;;;;;14.18;9.23;;;;;;;;;;5064218;28;20024;-70
2021/09/10 00:34:05;;;;;;;15.35;10.32;;;;;;;;;;5062710;28;20033;-70
2021/09/10 00:36:31;;;;;;;15.45;10.05;;;;;;;;;;5063107;28;20032;-75
2021/09/10 00:38:57;;;;;;;15.55;9.55;;;;;;;;;;5063021;28;20036;-70
2021/09/10 00:41:23;;;;;;;15.00;8.82;;;;;;;;;;5063229;28;20024;-75
2021/09/10 00:43:49;;;;;;;15.52;8.07;;;;;;;;;;5061760;28;20025;-73
2021/09/10 00:46:16;;;;;;;13.02;8.73;;;;;;;;;;5062534;28;20361;-72
2021/09/10 00:48:42;;;;;;;13.32;9.02;;;;;;;;;;5063089;28;20100;-71
2021/09/10 00:51:08;;;;;;;14.02;8.65;;;;;;;;;;5062834;28;20025;-70
2021/09/10 00:53:35;;;;;;;14.07;8.35;;;;;;;;;;5062860;28;20029;-73
2021/09/10 00:56:01;;;;;;;12.93;8.50;;;;;;;;;;5061228;28;20036;-73
2021/09/10 00:58:27;;;;;;;11.85;7.88;;;;;;;;;;5061944;28;20025;-71
2021/09/10 01:00:53;;;;;;;11.40;7.47;;;;;;;;;;5062280;28;20029;-73
2021/09/10 01:03:19;;;;;;;9.60;6.88;;;;;;;;;;5061738;28;20053;-71
2021/09/10 01:05:46;;;;;;;9.52;6.80;;;;;;;;;;5061849;28;20025;-73
2021/09/10 01:08:12;;;;;;;9.13;6.38;;;;;;;;;;5062166;28;20048;-69
2021/09/10 01:10:39;;;;;;;9.90;6.78;;;;;;;;;;5062531;28;20017;-69
2021/09/10 01:13:06;;;;;;;8.13;6.25;;;;;;;;;;5062596;28;20074;-67
2021/09/10 01:15:32;;;;;;;7.93;5.65;;;;;;;;;;5062464;28;20021;-72
2021/09/10 01:17:58;;;;;;;9.25;6.05;;;;;;;;;;5062525;28;20025;-67
2021/09/10 01:20:24;;;;;;;7.60;5.88;;;;;;;;;;5062489;28;20031;-73
2021/09/10 01:22:50;;;;;;;8.18;5.85;;;;;;;;;;5062232;28;20017;-68
2021/09/10 01:25:18;;;;;;;9.60;6.22;;;;;;;;;;5062100;28;20033;-70
2021/09/10 01:27:53;;;;;;;10.60;7.13;;;;;;;;;;5062645;28;20021;-67
2021/09/10 01:30:21;;;;;;;10.30;6.25;;;;;;;;;;5063221;28;20054;-70
2021/09/10 01:32:47;;;;;;;9.60;6.80;;;;;;;;;;5063254;28;20029;-73
2021/09/10 01:35:13;;;;;;;9.88;7.03;;;;;;;;;;5063213;28;20021;-73
2021/09/10 01:37:40;;;;;;;9.85;6.65;;;;;;;;;;5085272;28;20028;-70
2021/09/10 01:40:06;;;;;;;10.85;7.25;;;;;;;;;;5087435;28;20475;-72
2021/09/10 01:42:33;;;;;;;8.95;6.20;;;;;;;;;;5086511;28;20395;-70
2021/09/10 01:44:59;;;;;;;9.05;5.95;;;;;;;;;;5087454;28;20028;-72
2021/09/10 01:47:25;;;;;;;8.80;6.05;;;;;;;;;;5088314;28;20047;-73
2021/09/10 01:49:51;;;;;;;8.52;5.85;;;;;;;;;;5084457;28;20031;-70
2021/09/10 01:52:18;;;;;;;7.90;5.28;;;;;;;;;;5083809;28;20020;-73
2021/09/10 01:54:44;;;;;;;8.20;6.15;;;;;;;;;;5084050;28;20043;-72
2021/09/10 01:57:10;;;;;;;7.88;5.72;;;;;;;;;;5082962;28;20059;-69
2021/09/10 01:59:37;;;;;;;11.70;6.78;;;;;;;;;;5083234;28;20104;-67
2021/09/10 02:02:03;;;;;;;9.07;6.43;;;;;;;;;;5083219;28;20483;-71
2021/09/10 02:04:29;;;;;;;11.30;6.68;;;;;;;;;;5082331;28;20044;-69
2021/09/10 02:06:55;;;;;;;10.38;6.82;;;;;;;;;;5082833;28;20024;-69
2021/09/10 02:09:24;;;;;;;7.88;6.03;;;;;;;;;;5082510;28;20028;-68
2021/09/10 02:11:50;;;;;;;9.15;5.85;;;;;;;;;;5082737;28;20096;-67
2021/09/10 02:14:23;;;;;;;9.20;6.35;;;;;;;;;;5081443;28;20029;-71
2021/09/10 02:16:49;;;;;;;9.73;5.85;;;;;;;;;;5081894;28;20028;-73
2021/09/10 02:19:15;;;;;;;9.40;6.22;;;;;;;;;;5082182;28;20024;-70
2021/09/10 02:21:41;;;;;;;7.95;5.82;;;;;;;;;;5081165;28;20025;-71
2021/09/10 02:24:07;;;;;;;8.82;6.00;;;;;;;;;;5075721;28;20033;-70
2021/09/10 02:26:33;;;;;;;7.57;5.55;;;;;;;;;;5061514;28;20361;-71
2021/09/10 02:28:59;;;;;;;6.70;5.28;;;;;;;;;;5061265;28;20021;-70
2021/09/10 02:31:26;;;;;;;7.25;5.82;;;;;;;;;;5062247;28;20486;-70
2021/09/10 02:33:52;;;;;;;7.57;5.10;;;;;;;;;;5064411;28;20029;-69
2021/09/10 02:36:18;;;;;;;9.52;5.57;;;;;;;;;;5062513;28;20028;-71
2021/09/10 02:38:44;;;;;;;10.48;6.00;;;;;;;;;;5062354;28;20088;-68
2021/09/10 02:41:11;;;;;;;8.68;6.13;;;;;;;;;;5061309;28;20039;-72
2021/09/10 02:43:37;;;;;;;9.25;6.18;;;;;;;;;;5060764;28;20124;-67
2021/09/10 02:46:03;;;;;;;12.07;6.68;;;;;;;;;;5060683;28;20032;-70
2021/09/10 02:48:29;;;;;;;12.10;7.15;;;;;;;;;;5060750;28;20030;-67
2021/09/10 02:50:55;;;;;;;8.75;6.68;;;;;;;;;;5059475;28;20021;-70
2021/09/10 02:53:21;;;;;;;8.30;6.03;;;;;;;;;;5060355;28;20048;-67
2021/09/10 02:55:47;;;;;;;9.55;6.78;;;;;;;;;;5061384;28;20021;-67
2021/09/10 02:58:13;;;;;;;8.73;6.88;;;;;;;;;;5061194;28;20028;-73
2021/09/10 03:00:39;;;;;;;8.77;6.22;;;;;;;;;;5060773;28;20070;-74
2021/09/10 03:03:05;;;;;;;6.78;5.22;;;;;;;;;;5060370;28;20051;-71
2021/09/10 03:05:32;;;;;;;9.90;5.82;;;;;;;;;;5060748;28;20442;-70
2021/09/10 03:07:58;;;;;;;7.93;5.43;;;;;;;;;;5060156;28;20027;-68
2021/09/10 03:10:24;;;;;;;7.72;5.30;;;;;;;;;;5060838;28;20104;-71
2021/09/10 03:12:51;;;;;;;7.50;5.28;;;;;;;;;;5060651;28;20434;-67
2021/09/10 03:15:17;;;;;;;12.70;5.53;;;;;;;;;;5063227;28;20077;-67
2021/09/10 03:17:43;;;;;;;6.63;5.07;;;;;;;;;;5064401;28;20381;-67
2021/09/10 03:20:10;;;;;;;7.38;5.47;;;;;;;;;;5064355;28;20108;-69
2021/09/10 03:22:36;;;;;;;6.68;5.07;;;;;;;;;;5063594;28;20112;-69
2021/09/10 03:25:03;;;;;;;5.40;4.40;;;;;;;;;;5063065;28;20403;-71
2021/09/10 03:27:29;;;;;;;5.80;4.57;;;;;;;;;;5062312;28;20053;-69
2021/09/10 03:29:55;;;;;;;9.88;4.65;;;;;;;;;;5061503;28;20047;-71
2021/09/10 03:32:22;;;;;;;6.20;5.30;;;;;;;;;;5060857;28;20483;-71
2021/09/10 03:34:48;;;;;;;7.85;5.28;;;;;;;;;;5060280;28;20025;-67
2021/09/10 03:37:15;;;;;;;7.00;4.90;;;;;;;;;;5060641;28;20071;-71
2021/09/10 03:39:41;;;;;;;6.63;4.80;;;;;;;;;;5060787;28;20029;-70
2021/09/10 03:42:07;;;;;;;9.38;5.38;;;;;;;;;;5060228;28;20037;-72
2021/09/10 03:44:34;;;;;;;6.63;5.03;;;;;;;;;;5060525;28;20108;-71
2021/09/10 03:47:04;;;;;;;6.55;4.88;;;;;;;;;;5060647;28;20096;-72
2021/09/10 03:49:30;;;;;;;5.50;5.00;;;;;;;;;;5060646;28;20078;-70
2021/09/10 03:51:56;;;;;;;6.47;5.05;;;;;;;;;;5060546;28;20563;-68
2021/09/10 03:54:22;;;;;;;6.20;5.05;;;;;;;;;;5060488;28;20482;-71
2021/09/10 03:56:48;;;;;;;10.57;5.25;;;;;;;;;;5060093;28;20048;-69
2021/09/10 03:59:14;;;;;;;6.82;5.20;;;;;;;;;;5060504;28;20025;-68
2021/09/10 04:01:40;;;;;;;7.38;5.70;;;;;;;;;;5059525;28;20036;-70
2021/09/10 04:04:06;;;;;;;5.72;5.13;;;;;;;;;;5063823;28;20044;-67
2021/09/10 04:06:32;;;;;;;7.03;5.50;;;;;;;;;;5064752;28;20037;-69
2021/09/10 04:08:59;;;;;;;6.85;5.68;;;;;;;;;;5064507;28;20049;-70
2021/09/10 04:11:25;;;;;;;7.60;5.57;;;;;;;;;;5063805;28;20036;-71
2021/09/10 04:13:51;;;;;;;6.35;5.03;;;;;;;;;;5064081;28;20033;-67
2021/09/10 04:16:17;;;;;;;6.95;4.65;;;;;;;;;;5062729;28;20483;-72
2021/09/10 04:18:43;;;;;;;8.32;5.45;;;;;;;;;;5062987;28;20112;-71
2021/09/10 04:21:09;;;;;;;7.00;5.25;;;;;;;;;;5063142;28;20056;-75
2021/09/10 04:23:35;;;;;;;8.57;4.95;;;;;;;;;;5063330;28;20025;-71
2021/09/10 04:26:02;;;;;;;7.05;5.18;;;;;;;;;;5063063;28;20025;-71
2021/09/10 04:28:28;;;;;;;8.40;4.32;;;;;;;;;;5062961;28;20080;-72
2021/09/10 04:30:54;;;;;;;7.68;4.70;;;;;;;;;;5062480;28;20025;-71
2021/09/10 04:33:23;;;;;;;6.13;5.03;;;;;;;;;;5062876;28;20383;-70
2021/09/10 04:35:49;;;;;;;6.55;4.82;;;;;;;;;;5063116;28;20091;-68
2021/09/10 04:38:15;;;;;;;4.68;4.15;;;;;;;;;;5074525;28;20107;-70
2021/09/10 04:40:41;;;;;;;6.72;4.45;;;;;;;;;;5082406;28;20028;-68
2021/09/10 04:43:07;;;;;;;5.63;4.55;;;;;;;;;;5083122;28;20020;-71
2021/09/10 04:45:34;;;;;;;5.82;4.13;;;;;;;;;;5082214;28;20024;-73
2021/09/10 04:48:00;;;;;;;6.05;4.22;;;;;;;;;;5082591;28;20043;-75
2021/09/10 04:50:26;;;;;;;6.35;3.95;;;;;;;;;;5081865;28;20101;-71
2021/09/10 04:52:52;;;;;;;5.07;4.20;;;;;;;;;;5082717;28;20048;-72
2021/09/10 04:55:21;;;;;;;6.20;4.60;;;;;;;;;;5082563;28;20368;-70
2021/09/10 04:57:47;;;;;;;8.73;5.20;;;;;;;;;;5083508;28;20029;-71
2021/09/10 05:00:14;;;;;;;6.38;4.43;;;;;;;;;;5083492;28;20395;-72
2021/09/10 05:02:41;;;;;;;7.90;4.60;;;;;;;;;;5082061;28;20081;-72
2021/09/10 05:05:07;;;;;;;8.90;5.32;;;;;;;;;;5082415;28;20043;-71
2021/09/10 05:07:34;;;;;;;9.00;6.13;;;;;;;;;;5081803;28;20040;-71
2021/09/10 05:10:00;;;;;;;8.43;4.68;;;;;;;;;;5082496;28;20060;-74
2021/09/10 05:12:26;;;;;;;7.72;5.45;;;;;;;;;;5082432;28;20047;-71
2021/09/10 05:14:55;;;;;;;8.00;5.82;;;;;;;;;;5083086;28;20039;-68
2021/09/10 05:17:21;;;;;;;10.95;5.63;;;;;;;;;;5083255;28;20025;-72
2021/09/10 05:19:48;;;;;;;11.05;5.95;;;;;;;;;;5084440;28;20028;-71
2021/09/10 05:22:15;;;;;;;9.68;5.65;;;;;;;;;;5082176;28;20107;-67
2021/09/10 05:24:41;;;;;;;9.63;5.68;;;;;;;;;;5081329;28;20028;-69
2021/09/10 05:27:07;;;;;;;9.27;6.22;;;;;;;;;;5082010;28;20024;-67
2021/09/10 05:29:33;;;;;;;12.90;6.05;;;;;;;;;;5082190;28;20481;-69
2021/09/10 05:32:00;;;;;;;9.98;6.00;;;;;;;;;;5083701;28;20021;-69
2021/09/10 05:34:32;;;;;;;11.98;7.13;;;;;;;;;;5083388;28;20028;-66
2021/09/10 05:37:05;;;;;;;11.80;6.28;;;;;;;;;;5081956;28;20028;-68
2021/09/10 05:39:31;;;;;;;12.73;7.30;;;;;;;;;;5072086;28;20021;-71
2021/09/10 05:41:57;;;;;;;12.43;6.75;;;;;;;;;;5072046;28;20476;-69
2021/09/10 05:44:23;;;;;;;11.57;6.88;;;;;;;;;;5062283;28;20055;-73
2021/09/10 05:46:50;;;;;;;11.25;6.95;;;;;;;;;;5063670;28;20549;-67
2021/09/10 05:49:16;;;;;;;11.70;6.95;;;;;;;;;;5060408;28;20041;-73
2021/09/10 05:51:42;;;;;;;12.73;7.53;;;;;;;;;;5062117;28;20017;-67
2021/09/10 05:54:08;;;;;;;12.05;6.90;;;;;;;;;;5062758;28;20088;-70
2021/09/10 05:56:34;;;;;;;13.07;7.03;;;;;;;;;;5062555;28;20092;-67
2021/09/10 05:59:00;;;;;;;17.35;8.07;;;;;;;;;;5061674;28;20025;-73
2021/09/10 06:01:26;;;;;;;16.38;8.52;;;;;;;;;;5061746;28;20074;-71
2021/09/10 06:03:53;;;;;;;20.05;8.80;;;;;;;;;;5061256;28;20060;-71
2021/09/10 06:06:19;;;;;;;18.33;9.05;;;;;;;;;;5061723;28;20117;-70
2021/09/10 06:08:45;;;;;;;14.40;8.38;;;;;;;;;;5061991;28;20072;-72
2021/09/10 06:11:11;;;;;;;15.30;7.88;;;;;;;;;;5062357;28;20480;-70
2021/09/10 06:13:37;;;;;;;17.75;8.88;;;;;;;;;;5061189;28;20036;-70
2021/09/10 06:16:04;;;;;;;13.35;8.45;;;;;;;;;;5061459;28;20032;-69
2021/09/10 06:18:30;;;;;;;15.00;8.02;;;;;;;;;;5062223;28;20028;-72
2021/09/10 06:20:57;;;;;;;15.20;8.38;;;;;;;;;;5063624;28;20033;-67
2021/09/10 06:23:23;;;;;;;16.45;7.60;;;;;;;;;;5064216;28;20024;-68
2021/09/10 06:25:50;;;;;;;14.50;8.93;;;;;;;;;;5062053;28;20032;-69
2021/09/10 06:28:16;;;;;;;14.10;7.70;;;;;;;;;;5060971;28;20486;-72
2021/09/10 06:30:42;;;;;;;13.30;8.32;;;;;;;;;;5061666;28;20029;-70
2021/09/10 06:33:08;;;;;;;12.02;6.97;;;;;;;;;;5062153;28;20025;-71
2021/09/10 06:35:34;;;;;;;15.13;8.65;;;;;;;;;;5062069;28;20484;-71
2021/09/10 06:38:00;;;;;;;15.57;8.48;;;;;;;;;;5061403;28;20060;-72
2021/09/10 06:40:26;;;;;;;15.40;8.32;;;;;;;;;;5061520;28;20369;-67
2021/09/10 06:42:53;;;;;;;17.17;8.20;;;;;;;;;;5061127;28;20455;-70
2021/09/10 06:45:20;;;;;;;13.30;7.78;;;;;;;;;;5061579;28;20029;-67
2021/09/10 06:47:46;;;;;;;13.95;7.80;;;;;;;;;;5059816;28;20526;-72
2021/09/10 06:50:12;;;;;;;15.85;9.35;;;;;;;;;;5059482;28;20028;-71
2021/09/10 06:52:39;;;;;;;18.05;9.38;;;;;;;;;;5062941;28;20075;-72
2021/09/10 06:55:06;;;;;;;19.75;8.52;;;;;;;;;;5059348;28;20104;-74
2021/09/10 06:57:33;;;;;;;16.65;9.60;;;;;;;;;;5060880;28;20083;-73
2021/09/10 06:59:59;;;;;;;15.77;9.77;;;;;;;;;;5058917;28;20128;-70
2021/09/10 07:02:26;;;;;;;16.52;8.77;;;;;;;;;;5056773;28;20028;-72
2021/09/10 07:04:52;;;;;;;16.58;8.32;;;;;;;;;;5056895;28;20041;-67
2021/09/10 07:07:18;;;;;;;17.10;9.27;;;;;;;;;;5057833;28;20020;-74
2021/09/10 07:09:44;;;;;;;17.58;9.15;;;;;;;;;;5055524;28;20021;-70
2021/09/10 07:12:10;;;;;;;14.65;8.63;;;;;;;;;;5054471;28;20025;-74
2021/09/10 07:14:36;;;;;;;15.05;9.95;;;;;;;;;;5055144;28;20021;-72
2021/09/10 07:17:03;;;;;;;13.00;8.48;;;;;;;;;;5057644;28;20558;-67
2021/09/10 07:19:29;;;;;;;14.15;8.90;;;;;;;;;;5054219;28;20087;-70
2021/09/10 07:21:55;;;;;;;12.55;7.63;;;;;;;;;;5057673;28;20021;-71
2021/09/10 07:24:21;;;;;;;15.25;8.65;;;;;;;;;;5064061;28;20091;-69
2021/09/10 07:26:51;;;;;;;16.70;9.18;;;;;;;;;;5064706;28;20049;-68
2021/09/10 07:29:19;;;;;;;17.92;9.27;;;;;;;;;;5064535;28;20043;-68
2021/09/10 07:31:46;;;;;;;22.52;10.52;;;;;;;;;;5062948;28;20044;-66
2021/09/10 07:34:12;;;;;;;20.75;9.77;;;;;;;;;;5057873;28;20029;-73
2021/09/10 07:36:38;;;;;;;16.30;9.50;;;;;;;;;;5054617;28;20479;-72
2021/09/10 07:39:04;;;;;;;16.55;9.20;;;;;;;;;;5063198;28;20021;-73
2021/09/10 07:41:30;;;;;;;15.23;8.00;;;;;;;;;;5057348;28;20039;-70
2021/09/10 07:43:57;;;;;;;17.38;9.55;;;;;;;;;;5057293;28;20031;-73
2021/09/10 07:46:23;;;;;;;19.25;8.93;;;;;;;;;;5059310;28;20017;-70
2021/09/10 07:48:50;;;;;;;13.43;8.27;;;;;;;;;;5056728;28;20095;-70
2021/09/10 07:51:16;;;;;;;13.50;7.90;;;;;;;;;;5057230;28;20467;-74
2021/09/10 07:53:42;;;;;;;13.48;8.07;;;;;;;;;;5059459;28;20456;-72
2021/09/10 07:56:08;;;;;;;13.82;7.82;;;;;;;;;;5058842;28;20077;-74
2021/09/10 07:58:34;;;;;;;13.57;8.25;;;;;;;;;;5056944;28;20021;-73
2021/09/10 08:01:00;;;;;;;14.18;7.45;;;;;;;;;;5059218;28;20032;-75
2021/09/10 08:03:28;;;;;;;14.35;7.40;;;;;;;;;;5061362;28;20049;-74
2021/09/10 08:05:54;;;;;;;14.60;8.27;;;;;;;;;;5057933;28;20025;-76
2021/09/10 08:08:20;;;;;;;16.35;9.07;;;;;;;;;;5058219;28;20024;-70
2021/09/10 08:10:47;;;;;;;15.23;8.35;;;;;;;;;;5055694;28;20028;-72
2021/09/10 08:13:13;;;;;;;17.23;8.70;;;;;;;;;;5059122;28;20108;-74
2021/09/10 08:15:39;;;;;;;17.42;9.27;;;;;;;;;;5057757;28;20024;-72
2021/09/10 08:18:05;;;;;;;13.88;8.88;;;;;;;;;;5074422;28;20029;-71
2021/09/10 08:20:31;;;;;;;18.80;9.07;;;;;;;;;;5077956;28;20029;-73
2021/09/10 08:22:57;;;;;;;13.25;8.27;;;;;;;;;;5079256;28;20029;-70
2021/09/10 08:25:23;;;;;;;12.68;8.00;;;;;;;;;;5078671;28;20135;-74
2021/09/10 08:27:49;;;;;;;17.55;7.90;;;;;;;;;;5081872;28;20020;-69
2021/09/10 08:30:16;;;;;;;12.88;8.15;;;;;;;;;;5083330;28;20032;-73
2021/09/10 08:32:42;;;;;;;12.57;8.00;;;;;;;;;;5080179;28;20110;-72
2021/09/10 08:35:08;;;;;;;12.45;7.78;;;;;;;;;;5071999;28;20033;-71
2021/09/10 08:37:34;;;;;;;17.15;10.18;;;;;;;;;;5057454;28;20029;-70
2021/09/10 08:40:02;;;;;;;20.35;9.85;;;;;;;;;;5061310;28;20029;-72
2021/09/10 08:42:28;;;;;;;21.17;10.57;;;;;;;;;;5057828;28;20055;-71
2021/09/10 08:44:54;;;;;;;22.50;11.85;;;;;;;;;;5059272;28;20100;-72
2021/09/10 08:47:20;;;;;;;21.90;11.63;;;;;;;;;;5064494;28;20108;-72
2021/09/10 08:49:47;;;;;;;20.73;11.20;;;;;;;;;;5065787;28;20102;-70
2021/09/10 08:52:14;;;;;;;17.95;9.68;;;;;;;;;;5066450;28;20467;-71
2021/09/10 08:54:40;;;;;;;19.05;10.68;;;;;;;;;;5066047;28;20025;-66
2021/09/10 08:57:06;;;;;;;17.45;9.65;;;;;;;;;;5074310;28;20025;-73
2021/09/10 08:59:33;;;;;;;19.00;9.65;;;;;;;;;;5058394;28;20384;-71
2021/09/10 09:02:00;;;;;;;19.55;10.48;;;;;;;;;;5062829;28;20036;-72
2021/09/10 09:04:30;;;;;;;19.65;10.25;;;;;;;;;;5056679;28;20407;-67
2021/09/10 09:06:56;;;;;;;19.83;10.35;;;;;;;;;;5056079;28;20104;-71
2021/09/10 09:09:39;;;;;;;21.48;12.00;;;;;;;;;;5055847;28;20605;-70
2021/09/10 09:12:12;;;;;;;18.00;10.23;;;;;;;;;;5056102;28;20021;-76
2021/09/10 09:14:47;;;;;;;21.88;10.70;;;;;;;;;;5058460;28;20029;-69
2021/09/10 09:17:18;;;;;;;23.13;12.60;;;;;;;;;;5058589;28;20036;-71
2021/09/10 09:19:44;;;;;;;24.23;14.27;;;;;;;;;;5054609;28;20025;-75
2021/09/10 09:22:10;;;;;;;25.10;13.75;;;;;;;;;;5053719;28;20032;-73
2021/09/10 09:24:36;;;;;;;28.58;13.68;;;;;;;;;;5060464;28;20079;-66
2021/09/10 09:27:08;;;;;;;27.23;14.43;;;;;;;;;;5056233;28;20040;-70
2021/09/10 09:29:48;;;;;;;25.38;15.88;;;;;;;;;;5057075;28;20479;-74
2021/09/10 09:32:15;;;;;;;31.55;16.63;;;;;;;;;;5055770;28;20071;-73
2021/09/10 09:34:45;;;;;;;30.05;17.15;;;;;;;;;;5056785;28;20021;-73
2021/09/10 09:37:12;;;;;;;36.13;18.52;;;;;;;;;;5059094;28;20032;-66
2021/09/10 09:39:53;;;;;;;34.90;17.67;;;;;;;;;;5061077;28;20033;-66
2021/09/10 09:42:27;;;;;;;33.50;17.95;;;;;;;;;;5057601;28;20090;-76
2021/09/10 09:45:14;;;;;;;23.45;13.68;;;;;;;;;;5060107;28;20033;-73
2021/09/10 09:47:40;;;;;;;18.40;11.07;;;;;;;;;;5057033;28;20029;-75
2021/09/10 09:50:17;;;;;;;17.92;11.05;;;;;;;;;;5057799;28;20021;-70
2021/09/10 09:52:44;;;;;;;15.07;10.95;;;;;;;;;;5057970;28;20024;-72
2021/09/10 09:55:12;;;;;;;13.70;9.63;;;;;;;;;;5059201;28;20033;-67
2021/09/10 09:57:39;;;;;;;11.55;8.20;;;;;;;;;;5057800;28;20048;-68
2021/09/10 10:00:07;;;;;;;9.43;7.07;;;;;;;;;;5061604;28;20021;-75
2021/09/10 10:02:36;;;;;;;10.05;6.57;;;;;;;;;;5059656;28;20033;-72
2021/09/10 10:05:03;;;;;;;8.32;6.53;;;;;;;;;;5065360;28;20126;-72
2021/09/10 10:07:43;;;;;;;6.57;5.63;;;;;;;;;;5073165;28;20021;-73
2021/09/10 10:10:11;;;;;;;6.45;5.03;;;;;;;;;;5076028;28;20020;-71
2021/09/10 10:12:37;;;;;;;7.65;5.55;;;;;;;;;;5062328;28;20120;-74
2021/09/10 10:15:30;;;;;;;6.50;5.40;;;;;;;;;;5057948;28;20515;-71
2021/09/10 10:17:57;;;;;;;6.00;5.10;;;;;;;;;;5058488;28;20064;-66
2021/09/10 10:20:42;;;;;;;8.45;6.00;;;;;;;;;;5057153;28;20037;-73
2021/09/10 10:23:26;;;;;;;10.90;7.25;;;;;;;;;;5058031;28;20033;-71
2021/09/10 10:26:06;;;;;;;9.55;7.38;;;;;;;;;;5036454;28;20411;-69
2021/09/10 10:28:42;;;;;;;9.98;7.82;;;;;;;;;;5034963;28;20025;-72
2021/09/10 10:31:08;;;;;;;10.30;8.27;;;;;;;;;;5040201;28;20021;-66
2021/09/10 10:33:34;;;;;;;9.88;8.23;;;;;;;;;;5038000;28;20454;-67
2021/09/10 10:36:20;;;;;;;11.25;8.48;;;;;;;;;;5034312;28;20051;-74
2021/09/10 10:39:04;;;;;;;11.63;8.55;;;;;;;;;;5034357;28;20029;-72
2021/09/10 10:41:44;;;;;;;10.18;8.85;;;;;;;;;;5051148;28;20033;-73
2021/09/10 10:44:37;;;;;;;9.70;8.02;;;;;;;;;;5057615;28;20033;-66
2021/09/10 10:47:06;;;;;;;11.13;8.32;;;;;;;;;;5054161;28;20136;-75
2021/09/10 10:49:36;;;;;;;12.25;8.45;;;;;;;;;;5055847;28;20108;-72
2021/09/10 10:52:22;;;;;;;13.85;10.45;;;;;;;;;;5056480;28;20024;-72
2021/09/10 10:55:08;;;;;;;14.20;10.32;;;;;;;;;;5055848;28;20437;-70
2021/09/10 10:57:35;;;;;;;16.52;12.23;;;;;;;;;;5057689;28;20033;-70
2021/09/10 11:00:21;;;;;;;15.27;12.38;;;;;;;;;;5055546;28;20056;-73
2021/09/10 11:02:47;;;;;;;13.68;10.48;;;;;;;;;;5054265;28;20495;-72
2021/09/10 11:05:14;;;;;;;14.13;10.90;;;;;;;;;;5053976;28;20064;-71
2021/09/10 11:07:40;;;;;;;12.98;8.93;;;;;;;;;;5055363;28;20021;-70
2021/09/10 11:10:08;;;;;;;12.95;9.82;;;;;;;;;;5055863;28;20037;-74
2021/09/10 11:12:39;;;;;;;16.77;10.85;;;;;;;;;;5053386;28;20035;-70
2021/09/10 11:15:20;;;;;;;13.00;9.40;;;;;;;;;;5055027;28;20394;-73
2021/09/10 11:17:53;;;;;;;15.95;10.10;;;;;;;;;;5057375;28;20033;-72
2021/09/10 11:20:26;;;;;;;15.75;10.68;;;;;;;;;;5054512;28;20037;-73
2021/09/10 11:22:52;;;;;;;15.63;10.23;;;;;;;;;;5055020;28;20036;-73
2021/09/10 11:25:18;;;;;;;14.30;9.18;;;;;;;;;;5070801;28;20029;-72
2021/09/10 11:27:44;;;;;;;14.63;11.65;;;;;;;;;;5060285;28;20025;-74
2021/09/10 11:30:12;;;;;;;17.30;12.20;;;;;;;;;;5059171;28;20029;-67
2021/09/10 11:32:38;;;;;;;18.15;11.25;;;;;;;;;;5073918;28;20021;-72
2021/09/10 11:35:17;;;;;;;15.23;10.75;;;;;;;;;;5072875;28;20076;-71
2021/09/10 11:37:53;;;;;;;14.30;8.85;;;;;;;;;;5055840;28;20044;-69
2021/09/10 11:40:36;;;;;;;12.85;8.90;;;;;;;;;;5052846;28;20075;-67
2021/09/10 11:43:02;;;;;;;12.40;8.77;;;;;;;;;;5053170;28;20029;-69
2021/09/10 11:45:30;;;;;;;12.25;8.85;;;;;;;;;;5055583;28;20480;-73
2021/09/10 11:47:57;;;;;;;10.32;7.47;;;;;;;;;;5053206;28;20096;-73
2021/09/10 11:50:23;;;;;;;11.90;8.32;;;;;;;;;;5054158;28;20113;-73
2021/09/10 11:52:50;;;;;;;12.77;9.35;;;;;;;;;;5052584;28;20029;-72
2021/09/10 11:55:17;;;;;;;11.05;7.78;;;;;;;;;;5054206;28;20483;-73
2021/09/10 11:57:43;;;;;;;12.25;8.13;;;;;;;;;;5054683;28;20029;-74
2021/09/10 12:00:11;;;;;;;11.80;8.23;;;;;;;;;;5054450;28;20025;-73
2021/09/10 12:02:38;;;;;;;11.25;8.20;;;;;;;;;;5053705;28;20040;-67
2021/09/10 12:05:06;;;;;;;8.90;6.80;;;;;;;;;;5052232;28;20047;-72
2021/09/10 12:07:33;;;;;;;10.75;7.22;;;;;;;;;;5052547;28;20057;-73
2021/09/10 12:09:59;;;;;;;10.25;7.40;;;;;;;;;;5052991;28;20031;-72
2021/09/10 12:12:26;;;;;;;10.68;8.02;;;;;;;;;;5052633;28;20021;-70
2021/09/10 12:14:53;;;;;;;9.55;7.32;;;;;;;;;;5051559;28;20052;-73
2021/09/10 12:17:25;;;;;;;10.60;7.85;;;;;;;;;;5054724;28;20021;-69
2021/09/10 12:20:12;;;;;;;12.00;7.20;;;;;;;;;;5054582;28;20025;-67
2021/09/10 12:22:48;;;;;;;11.13;7.25;;;;;;;;;;5052757;28;20025;-73
2021/09/10 12:25:24;;;;;;;11.75;7.50;;;;;;;;;;5056723;28;20064;-72
2021/09/10 12:27:51;;;;;;;10.38;6.72;;;;;;;;;;5057610;28;20045;-71
2021/09/10 12:30:18;;;;;;;11.65;7.30;;;;;;;;;;5063924;28;20096;-70
2021/09/10 12:32:44;;;;;;;7.97;6.35;;;;;;;;;;5064455;28;20054;-67
2021/09/10 12:35:11;;;;;;;11.75;8.10;;;;;;;;;;5064474;28;20103;-72
2021/09/10 12:37:37;;;;;;;12.15;8.35;;;;;;;;;;5064398;28;20029;-72
2021/09/10 12:40:03;;;;;;;13.77;9.15;;;;;;;;;;5064654;28;20032;-66
2021/09/10 12:42:29;;;;;;;13.98;9.68;;;;;;;;;;5066286;28;20032;-68
2021/09/10 12:44:56;;;;;;;15.38;11.23;;;;;;;;;;5061486;28;20029;-70
2021/09/10 12:47:22;;;;;;;17.17;11.20;;;;;;;;;;5058120;28;20365;-72
2021/09/10 12:49:48;;;;;;;17.98;11.82;;;;;;;;;;5058165;28;20029;-69
2021/09/10 12:52:14;;;;;;;16.23;10.68;;;;;;;;;;5064021;28;20092;-66
2021/09/10 12:54:40;;;;;;;13.80;10.13;;;;;;;;;;5064658;28;20025;-68
2021/09/10 12:57:06;;;;;;;12.63;8.98;;;;;;;;;;5061937;28;20074;-71
2021/09/10 12:59:32;;;;;;;12.50;8.52;;;;;;;;;;5061461;28;20021;-73
2021/09/10 13:01:58;;;;;;;11.82;8.15;;;;;;;;;;5060842;28;20055;-73
2021/09/10 13:04:24;;;;;;;10.60;7.93;;;;;;;;;;5064274;28;20044;-72
2021/09/10 13:06:51;;;;;;;11.30;7.25;;;;;;;;;;5062549;28;20478;-66
2021/09/10 13:09:18;;;;;;;11.20;7.22;;;;;;;;;;5057775;28;20433;-73
2021/09/10 13:11:44;;;;;;;11.13;7.47;;;;;;;;;;5058847;28;20032;-72
2021/09/10 13:14:10;;;;;;;10.27;7.15;;;;;;;;;;5059134;28;20039;-73
2021/09/10 13:16:37;;;;;;;12.18;8.45;;;;;;;;;;5055931;28;20043;-71
2021/09/10 13:19:03;;;;;;;10.32;7.53;;;;;;;;;;5058789;28;20037;-74
2021/09/10 13:21:29;;;;;;;10.30;7.72;;;;;;;;;;5058220;28;20021;-65
2021/09/10 13:23:55;;;;;;;11.10;7.40;;;;;;;;;;5062340;28;20021;-70
2021/09/10 13:26:21;;;;;;;9.23;8.18;;;;;;;;;;5060599;28;20024;-66
2021/09/10 13:28:48;;;;;;;8.90;7.43;;;;;;;;;;5059520;28;20035;-70
2021/09/10 13:31:14;;;;;;;9.25;6.68;;;;;;;;;;5046764;28;20504;-65
2021/09/10 13:33:40;;;;;;;10.10;7.30;;;;;;;;;;5046414;28;20040;-64
2021/09/10 13:36:06;;;;;;;9.40;7.15;;;;;;;;;;5044935;28;20025;-70
2021/09/10 13:38:33;;;;;;;10.23;7.00;;;;;;;;;;5048258;28;20361;-64
2021/09/10 13:40:59;;;;;;;10.55;7.13;;;;;;;;;;5067256;28;20101;-65
2021/09/10 13:43:26;;;;;;;9.43;7.18;;;;;;;;;;5068394;28;20025;-64
2021/09/10 13:45:52;;;;;;;9.50;7.03;;;;;;;;;;5067719;28;20059;-65
2021/09/10 13:48:18;;;;;;;8.27;6.97;;;;;;;;;;5067620;28;20021;-70
2021/09/10 13:50:46;;;;;;;10.45;7.95;;;;;;;;;;5067430;28;20028;-68
2021/09/10 13:53:12;;;;;;;11.02;7.65;;;;;;;;;;5067689;28;20017;-65
2021/09/10 13:55:38;;;;;;;9.88;8.05;;;;;;;;;;5067621;28;20051;-64
2021/09/10 13:58:04;;;;;;;10.38;8.10;;;;;;;;;;5067041;28;20025;-64
2021/09/10 14:00:31;;;;;;;10.07;7.40;;;;;;;;;;5066832;28;20089;-64
2021/09/10 14:02:57;;;;;;;11.88;8.68;;;;;;;;;;5065934;28;20025;-69
2021/09/10 14:05:23;;;;;;;9.15;7.28;;;;;;;;;;5065714;28;20044;-65
2021/09/10 14:07:49;;;;;;;11.70;7.95;;;;;;;;;;5067416;28;20467;-67
2021/09/10 14:10:18;;;;;;;13.77;9.10;;;;;;;;;;5067378;28;20057;-66
2021/09/10 14:12:45;;;;;;;11.20;9.25;;;;;;;;;;5047429;28;20029;-64
2021/09/10 14:15:11;;;;;;;13.65;8.95;;;;;;;;;;5047199;28;20379;-70
2021/09/10 14:17:37;;;;;;;10.93;7.40;;;;;;;;;;5046914;28;20045;-66
2021/09/10 14:20:04;;;;;;;10.98;8.02;;;;;;;;;;5047073;28;20059;-65
2021/09/10 14:22:30;;;;;;;11.57;8.75;;;;;;;;;;5046159;28;20085;-66
2021/09/10 14:24:56;;;;;;;12.77;7.93;;;;;;;;;;5046767;28;20121;-66
2021/09/10 14:27:23;;;;;;;11.57;8.95;;;;;;;;;;5047263;28;20029;-65
2021/09/10 14:29:49;;;;;;;13.43;8.38;;;;;;;;;;5044615;28;20018;-64
2021/09/10 14:32:15;;;;;;;11.93;8.48;;;;;;;;;;5047703;28;20021;-65
2021/09/10 14:34:41;;;;;;;10.65;7.70;;;;;;;;;;5047416;28;20025;-66
2021/09/10 14:37:07;;;;;;;10.65;8.38;;;;;;;;;;5047051;28;20029;-68